createdAt,value
2019-04-26T07:24:09.003Z,1003.96
2019-04-26T07:25:09.008Z,1003.92
2019-04-26T07:26:08.943Z,1003.99
2019-04-26T07:27:09.001Z,1003.97
2019-04-26T07:28:11.830Z,1003.99
2019-04-26T07:29:09.319Z,1004.03
2019-04-26T07:30:09.857Z,1004.09
2019-04-26T07:31:08.818Z,1004.14
2019-04-26T07:32:09.533Z,1004.19
2019-04-26T07:33:08.792Z,1004.21
2019-04-26T07:34:09.489Z,1004.20
2019-04-26T07:35:08.800Z,1004.20
2019-04-26T07:36:09.732Z,1004.20
2019-04-26T07:37:08.874Z,1004.17
2019-04-26T07:38:09.025Z,1004.23
2019-04-26T07:39:17.707Z,1004.22
2019-04-26T07:40:09.209Z,1004.23
2019-04-26T07:41:09.310Z,1004.27
2019-04-26T07:42:09.480Z,1004.30
2019-04-26T07:43:08.581Z,1004.29
2019-04-26T07:44:09.715Z,1004.29
2019-04-26T07:45:08.548Z,1004.31
2019-04-26T07:46:08.528Z,1004.32
2019-04-26T07:47:08.603Z,1004.33
2019-04-26T07:48:09.486Z,1004.31
2019-04-26T07:49:08.492Z,1004.33
2019-04-26T07:50:09.396Z,1004.33
2019-04-26T07:51:09.422Z,1004.31
2019-04-26T07:52:08.555Z,1004.29
2019-04-26T07:53:09.281Z,1004.32
2019-04-26T07:54:08.977Z,1004.34
2019-04-26T07:55:08.695Z,1004.36
2019-04-26T07:56:09.298Z,1004.35
2019-04-26T07:57:08.718Z,1004.41
2019-04-26T07:58:08.976Z,1004.46
2019-04-26T07:59:08.811Z,1004.45
2019-04-26T08:00:08.731Z,1004.45
2019-04-26T08:01:08.250Z,1004.45
2019-04-26T08:02:09.016Z,1004.46
2019-04-26T08:03:08.723Z,1004.43
2019-04-26T08:04:09.374Z,1004.39
2019-04-26T08:05:09.406Z,1004.31
2019-04-26T08:06:08.175Z,1004.34
2019-04-26T08:07:08.257Z,1004.31
2019-04-26T08:08:08.630Z,1004.30
2019-04-26T08:09:08.108Z,1004.32
2019-04-26T08:10:08.092Z,1004.34
2019-04-26T08:11:08.665Z,1004.40
2019-04-26T08:12:08.110Z,1004.38
2019-04-26T08:13:08.107Z,1004.41
2019-04-26T08:14:08.538Z,1004.41
2019-04-26T08:15:08.991Z,1004.49
2019-04-26T08:16:08.624Z,1004.54
2019-04-26T08:17:08.220Z,1004.59
2019-04-26T08:37:58.782Z,1004.83
2019-04-26T08:38:58.745Z,1004.85
2019-04-26T08:39:59.426Z,1004.87
2019-04-26T08:41:00.481Z,1004.88
2019-04-26T08:41:58.689Z,1004.91
2019-04-26T08:42:58.762Z,1004.95
2019-04-26T08:43:59.764Z,1004.99
2019-04-26T08:44:58.627Z,1004.97
2019-04-26T08:46:03.161Z,1004.94
2019-04-26T08:46:58.590Z,1004.96
2019-04-26T08:47:58.590Z,1004.99
2019-04-26T08:49:02.117Z,1004.99
2019-04-26T08:49:58.532Z,1004.98
2019-04-26T08:50:58.515Z,1004.98
2019-04-26T08:51:58.498Z,1004.97
2019-04-26T08:52:58.477Z,1005.00
2019-04-26T08:53:58.474Z,1005.00
2019-04-26T08:54:58.441Z,1004.94
2019-04-26T08:55:58.425Z,1004.97
2019-04-26T08:56:58.404Z,1004.97
2019-04-26T08:57:58.394Z,1004.92
2019-04-26T08:58:58.384Z,1004.96
2019-04-26T08:59:58.353Z,1004.93
2019-04-26T09:00:58.331Z,1004.95
2019-04-26T09:01:58.315Z,1004.95
2019-04-26T09:02:58.331Z,1004.95
2019-04-26T09:03:58.296Z,1004.95
2019-04-26T09:04:58.261Z,1004.90
2019-04-26T09:05:58.243Z,1004.85
2019-04-26T09:06:58.225Z,1004.88
2019-04-26T09:07:58.926Z,1004.89
2019-04-26T09:08:58.211Z,1004.88
2019-04-26T09:10:01.542Z,1004.87
2019-04-26T09:10:58.162Z,1004.87
2019-04-26T09:11:59.848Z,1004.86
2019-04-26T09:12:58.126Z,1004.86
2019-04-26T09:13:58.104Z,1004.93
2019-04-26T09:14:58.100Z,1004.89
2019-04-26T09:15:58.106Z,1004.86
2019-04-26T09:16:58.052Z,1004.85
2019-04-26T09:17:58.035Z,1004.83
2019-04-26T09:18:59.756Z,1004.82
2019-04-26T09:19:58.297Z,1004.85
2019-04-26T09:20:57.984Z,1004.82
2019-04-26T09:22:02.885Z,1004.86
2019-04-26T09:23:03.885Z,1004.91
2019-04-26T09:23:57.933Z,1004.96
2019-04-26T09:24:59.450Z,1004.98
2019-04-26T09:26:00.336Z,1005.08
2019-04-26T09:26:57.877Z,1005.04
2019-04-26T09:27:58.992Z,1005.11
2019-04-26T09:28:57.845Z,1005.08
2019-04-26T09:30:00.520Z,1005.04
2019-04-26T09:30:57.817Z,1005.04
2019-04-26T09:31:57.802Z,1004.99
2019-04-26T09:32:58.365Z,1005.01
2019-04-26T09:33:57.764Z,1004.99
2019-04-26T09:34:57.771Z,1005.02
2019-04-26T09:35:57.730Z,1005.01
2019-04-26T09:36:57.712Z,1005.04
2019-04-26T09:37:57.697Z,1005.08
2019-04-26T09:38:57.679Z,1005.09
2019-04-26T09:40:09.396Z,1005.08
2019-04-26T09:41:00.460Z,1005.10
2019-04-26T09:42:01.082Z,1005.12
2019-04-26T09:42:59.402Z,1005.13
2019-04-26T09:43:58.893Z,1005.17
2019-04-26T09:44:57.582Z,1005.18
2019-04-26T09:45:57.577Z,1005.19
2019-04-26T09:46:57.547Z,1005.23
2019-04-26T09:47:57.530Z,1005.24
2019-04-26T09:48:57.515Z,1005.28
2019-04-26T09:49:57.505Z,1005.27
2019-04-26T09:50:57.545Z,1005.34
2019-04-26T09:51:57.465Z,1005.33
2019-04-26T09:52:58.277Z,1005.33
2019-04-26T09:53:57.431Z,1005.36
2019-04-26T09:54:57.417Z,1005.39
2019-04-26T09:55:57.421Z,1005.40
2019-04-26T09:56:57.392Z,1005.37
2019-04-26T10:02:06.264Z,1005.45
2019-04-26T10:03:09.396Z,1005.46
2019-04-26T10:04:06.210Z,1005.47
2019-04-26T10:05:08.073Z,1005.42
2019-04-26T10:06:08.187Z,1005.46
2019-04-26T10:07:06.159Z,1005.45
2019-04-26T10:14:46.369Z,1005.49
2019-04-26T10:15:43.658Z,1005.51
2019-04-26T10:16:43.654Z,1005.45
2019-04-26T10:17:46.437Z,1005.47
2019-04-26T10:18:43.603Z,1005.41
2019-04-26T10:19:43.583Z,1005.47
2019-04-26T10:20:43.569Z,1005.42
2019-04-26T10:25:38.059Z,1005.39
2019-04-26T10:26:38.027Z,1005.34
2019-04-26T10:27:40.673Z,1005.35
2019-04-26T10:28:37.991Z,1005.35
2019-04-26T10:29:37.971Z,1005.28
2019-04-26T10:30:38.421Z,1005.28
2019-04-26T10:31:37.936Z,1005.26
2019-04-26T10:32:37.939Z,1005.24
2019-04-26T10:33:37.932Z,1005.24
2019-04-26T10:34:37.885Z,1005.26
2019-04-26T10:35:37.866Z,1005.30
2019-04-26T10:36:37.855Z,1005.31
2019-04-26T10:37:39.542Z,1005.29
2019-04-26T10:38:37.835Z,1005.29
2019-04-26T10:39:37.801Z,1005.26
2019-04-26T10:40:37.778Z,1005.27
2019-04-26T10:41:37.762Z,1005.27
2019-04-26T10:42:37.747Z,1005.30
2019-04-26T10:43:37.742Z,1005.28
2019-04-26T10:44:39.826Z,1005.32
2019-04-26T10:45:37.695Z,1005.37
2019-04-26T10:46:37.678Z,1005.37
2019-04-26T10:47:38.435Z,1005.35
2019-04-26T10:48:37.665Z,1005.36
2019-04-26T10:49:37.635Z,1005.38
2019-04-26T10:50:37.616Z,1005.35
2019-04-26T10:51:38.681Z,1005.37
2019-04-26T10:52:37.592Z,1005.36
2019-04-26T10:53:37.605Z,1005.33
2019-04-26T10:54:41.104Z,1005.29
2019-04-26T10:55:37.542Z,1005.31
2019-04-26T10:56:37.526Z,1005.24
2019-04-26T10:57:37.507Z,1005.25
2019-04-26T10:58:37.824Z,1005.22
2019-04-26T10:59:39.743Z,1005.21
2019-04-26T11:00:37.474Z,1005.23
2019-04-26T11:01:37.446Z,1005.27
2019-04-26T11:02:37.431Z,1005.25
2019-04-26T11:03:37.418Z,1005.23
2019-04-26T11:04:41.298Z,1005.25
2019-04-26T11:05:37.385Z,1005.21
2019-04-26T11:06:37.368Z,1005.17
2019-04-26T11:07:37.353Z,1005.21
2019-04-26T11:08:37.340Z,1005.19
2019-04-26T11:09:37.343Z,1005.21
2019-04-26T11:10:48.095Z,1005.22
2019-04-26T11:11:37.301Z,1005.22
2019-04-26T11:12:39.611Z,1005.27
2019-04-26T11:13:37.262Z,1005.22
2019-04-26T11:14:37.249Z,1005.20
2019-04-26T11:15:37.250Z,1005.25
2019-04-26T11:16:40.916Z,1005.25
2019-04-26T11:17:37.201Z,1005.29
2019-04-26T11:18:37.189Z,1005.28
2019-04-26T11:19:37.174Z,1005.33
2019-04-26T11:20:37.175Z,1005.36
2019-04-26T11:21:37.143Z,1005.42
2019-04-26T11:22:37.648Z,1005.39
2019-04-26T11:23:37.117Z,1005.38
2019-04-26T11:24:37.099Z,1005.38
2019-04-26T11:25:37.105Z,1005.39
2019-04-26T11:26:37.069Z,1005.33
2019-04-26T11:27:40.119Z,1005.30
2019-04-26T11:28:37.037Z,1005.30
2019-04-26T11:29:37.021Z,1005.29
2019-04-26T11:30:37.020Z,1005.24
2019-04-26T11:31:37.011Z,1005.27
2019-04-26T11:32:38.177Z,1005.24
2019-04-26T11:33:44.756Z,1005.20
2019-04-26T11:34:36.945Z,1005.16
2019-04-26T11:35:37.054Z,1005.18
2019-04-26T11:36:37.668Z,1005.16
2019-04-26T11:37:36.906Z,1005.11
2019-04-26T11:38:36.884Z,1005.16
2019-04-26T11:39:40.590Z,1005.15
2019-04-26T11:40:36.853Z,1005.13
2019-04-26T11:41:37.629Z,1005.19
2019-04-26T11:42:36.820Z,1005.23
2019-04-26T11:43:36.804Z,1005.25
2019-04-26T11:44:36.792Z,1005.29
2019-04-26T11:45:36.780Z,1005.26
2019-04-26T11:46:44.563Z,1005.26
2019-04-26T11:47:37.155Z,1005.24
2019-04-26T11:48:36.729Z,1005.22
2019-04-26T11:49:37.406Z,1005.19
2019-04-26T11:50:36.698Z,1005.21
2019-04-26T11:51:36.699Z,1005.21
2019-04-26T11:52:37.412Z,1005.24
2019-04-26T11:53:40.497Z,1005.20
2019-04-26T11:54:36.639Z,1005.21
2019-04-26T11:55:36.623Z,1005.21
2019-04-26T11:56:37.655Z,1005.20
2019-04-26T11:57:36.593Z,1005.16
2019-04-26T11:58:36.581Z,1005.13
2019-04-26T11:59:36.562Z,1005.11
2019-04-26T12:00:36.548Z,1005.05
2019-04-26T12:01:36.845Z,1005.08
2019-04-26T12:02:36.524Z,1005.07
2019-04-26T12:03:36.507Z,1005.11
2019-04-26T12:04:36.492Z,1005.11
2019-04-26T12:05:36.475Z,1005.13
2019-04-26T12:06:36.460Z,1005.11
2019-04-26T12:07:36.458Z,1005.13
2019-04-26T12:08:36.432Z,1005.16
2019-04-26T12:09:36.416Z,1005.17
2019-04-26T12:10:36.405Z,1005.16
2019-04-26T12:11:48.759Z,1005.15
2019-04-26T12:12:36.386Z,1005.19
2019-04-26T12:13:36.373Z,1005.19
2019-04-26T12:14:36.343Z,1005.20
2019-04-26T12:15:39.003Z,1005.27
2019-04-26T12:16:47.021Z,1005.28
2019-04-26T12:17:36.836Z,1005.27
2019-04-26T12:18:36.288Z,1005.21
2019-04-26T12:19:36.267Z,1005.21
2019-04-26T12:20:36.255Z,1005.18
2019-04-26T12:21:36.287Z,1005.12
2019-04-26T12:22:39.294Z,1005.15
2019-04-26T12:23:43.783Z,1005.14
2019-04-26T12:24:36.198Z,1005.12
2019-04-26T12:25:48.090Z,1005.14
2019-04-26T12:26:46.240Z,1005.08
2019-04-26T12:27:43.921Z,1005.13
2019-04-26T12:28:39.564Z,1005.10
2019-04-26T12:29:36.123Z,1005.14
2019-04-26T12:30:36.108Z,1005.16
2019-04-26T12:31:36.127Z,1005.14
2019-04-26T12:32:36.077Z,1005.18
2019-04-26T12:33:46.401Z,1005.20
2019-04-26T12:34:36.048Z,1005.23
2019-04-26T12:35:36.033Z,1005.23
2019-04-26T12:36:36.018Z,1005.28
2019-04-26T12:37:36.022Z,1005.24
2019-04-26T12:38:35.987Z,1005.25
2019-04-26T12:39:36.595Z,1005.22
2019-04-26T12:40:35.960Z,1005.22
2019-04-26T12:41:40.430Z,1005.22
2019-04-26T12:42:35.941Z,1005.24
2019-04-26T12:43:35.914Z,1005.23
2019-04-26T12:44:36.813Z,1005.30
2019-04-26T12:45:35.883Z,1005.27
2019-04-26T12:46:35.869Z,1005.30
2019-04-26T12:47:38.635Z,1005.30
2019-04-26T12:48:35.842Z,1005.32
2019-04-26T12:49:35.826Z,1005.36
2019-04-26T12:50:37.764Z,1005.33
2019-04-26T12:51:38.182Z,1005.32
2019-04-26T12:52:37.479Z,1005.31
2019-04-26T12:53:35.783Z,1005.33
2019-04-26T12:54:39.066Z,1005.33
2019-04-26T12:55:35.739Z,1005.28
2019-04-26T12:56:35.726Z,1005.35
2019-04-26T12:57:36.525Z,1005.33
2019-04-26T12:58:35.710Z,1005.39
2019-04-26T12:59:43.955Z,1005.39
2019-04-26T13:00:37.591Z,1005.37
2019-04-26T13:01:35.653Z,1005.39
2019-04-26T13:02:35.641Z,1005.42
2019-04-26T13:03:35.639Z,1005.41
2019-04-26T13:04:36.599Z,1005.40
2019-04-26T13:05:35.604Z,1005.37
2019-04-26T13:06:35.583Z,1005.40
2019-04-26T13:07:35.568Z,1005.43
2019-04-26T13:08:35.575Z,1005.44
2019-04-26T13:09:35.541Z,1005.42
2019-04-26T13:10:36.892Z,1005.48
2019-04-26T13:11:35.512Z,1005.42
2019-04-26T13:12:35.500Z,1005.46
2019-04-26T13:13:35.487Z,1005.44
2019-04-26T13:14:38.725Z,1005.45
2019-04-26T13:15:35.462Z,1005.38
2019-04-26T13:16:35.449Z,1005.40
2019-04-26T13:17:36.108Z,1005.37
2019-04-26T13:18:35.423Z,1005.36
2019-04-26T13:19:35.442Z,1005.38
2019-04-26T13:20:35.460Z,1005.36
2019-04-26T13:21:37.256Z,1005.35
2019-04-26T13:22:45.419Z,1005.36
2019-04-26T13:23:35.367Z,1005.34
2019-04-26T13:24:35.613Z,1005.36
2019-04-26T13:25:40.536Z,1005.35
2019-04-26T13:26:36.432Z,1005.37
2019-04-26T13:27:35.301Z,1005.33
2019-04-26T13:28:35.286Z,1005.37
2019-04-26T13:29:35.273Z,1005.33
2019-04-26T13:30:35.277Z,1005.30
2019-04-26T13:31:35.260Z,1005.33
2019-04-26T13:32:35.233Z,1005.33
2019-04-26T13:33:35.219Z,1005.36
2019-04-26T13:34:37.280Z,1005.35
2019-04-26T13:35:35.196Z,1005.35
2019-04-26T13:36:35.195Z,1005.43
2019-04-26T13:37:35.700Z,1005.35
2019-04-26T13:38:35.155Z,1005.40
2019-04-26T13:39:35.143Z,1005.38
2019-04-26T13:40:35.131Z,1005.43
2019-04-26T13:41:38.600Z,1005.42
2019-04-26T13:42:35.105Z,1005.45
2019-04-26T13:43:35.094Z,1005.52
2019-04-26T13:44:35.693Z,1005.50
2019-04-26T13:45:35.067Z,1005.50
2019-04-26T13:46:35.067Z,1005.56
2019-04-26T13:47:35.048Z,1005.53
2019-04-26T13:48:35.032Z,1005.55
2019-04-26T13:49:35.910Z,1005.59
2019-04-26T13:50:35.894Z,1005.62
2019-04-26T13:51:35.006Z,1005.62
2019-04-26T13:52:34.983Z,1005.61
2019-04-26T13:53:34.978Z,1005.59
2019-04-26T13:54:35.859Z,1005.55
2019-04-26T13:55:35.877Z,1005.68
2019-04-26T13:56:36.001Z,1005.75
2019-04-26T13:57:35.896Z,1005.73
2019-04-26T13:58:35.860Z,1005.76
2019-04-26T13:59:34.942Z,1005.74
2019-04-26T14:00:35.882Z,1005.75
2019-04-26T14:01:34.925Z,1005.74
2019-04-26T14:02:34.900Z,1005.72
2019-04-26T14:03:35.422Z,1005.74
2019-04-26T14:04:37.176Z,1005.68
2019-04-26T14:05:34.836Z,1005.65
2019-04-26T14:06:34.893Z,1005.62
2019-04-26T14:07:34.809Z,1005.62
2019-04-26T14:08:34.802Z,1005.58
2019-04-26T14:09:34.794Z,1005.58
2019-04-26T14:10:34.785Z,1005.56
2019-04-26T14:11:34.762Z,1005.58
2019-04-26T14:12:34.772Z,1005.59
2019-04-26T14:13:34.735Z,1005.57
2019-04-26T14:14:35.285Z,1005.54
2019-04-26T14:15:34.716Z,1005.55
2019-04-26T14:16:34.702Z,1005.54
2019-04-26T14:17:34.712Z,1005.56
2019-04-26T14:18:38.856Z,1005.54
2019-04-26T14:19:34.663Z,1005.53
2019-04-26T14:20:34.651Z,1005.54
2019-04-26T14:21:34.926Z,1005.59
2019-04-26T14:22:37.011Z,1005.51
2019-04-26T14:23:34.614Z,1005.49
2019-04-26T14:24:34.602Z,1005.54
2019-04-26T14:25:34.592Z,1005.52
2019-04-26T14:26:35.368Z,1005.52
2019-04-26T14:27:34.585Z,1005.52
2019-04-26T14:28:34.560Z,1005.50
2019-04-26T14:29:34.543Z,1005.57
2019-04-26T14:30:37.381Z,1005.48
2019-04-26T14:31:34.521Z,1005.46
2019-04-26T14:32:34.509Z,1005.42
2019-04-26T14:33:34.509Z,1005.39
2019-04-26T14:34:36.181Z,1005.41
2019-04-26T14:35:34.473Z,1005.40
2019-04-26T14:36:34.462Z,1005.43
2019-04-26T14:37:34.449Z,1005.43
2019-04-26T14:38:39.541Z,1005.48
2019-04-26T14:39:49.235Z,1005.50
2019-04-26T14:40:34.491Z,1005.49
2019-04-26T14:41:34.483Z,1005.53
2019-04-26T14:42:41.999Z,1005.50
2019-04-26T14:43:41.073Z,1005.49
2019-04-26T14:44:34.371Z,1005.47
2019-04-26T14:45:36.424Z,1005.54
2019-04-26T14:46:47.851Z,1005.52
2019-04-26T14:47:46.447Z,1005.37
2019-04-26T14:48:36.273Z,1005.44
2019-04-26T14:49:39.643Z,1005.41
2019-04-26T14:50:34.308Z,1005.33
2019-04-26T14:51:34.302Z,1005.35
2019-04-26T14:52:34.287Z,1005.33
2019-04-26T14:53:36.439Z,1005.35
2019-04-26T14:54:34.286Z,1005.26
2019-04-26T14:55:34.259Z,1005.30
2019-04-26T14:56:34.252Z,1005.32
2019-04-26T14:57:34.236Z,1005.32
2019-04-26T14:58:34.225Z,1005.28
2019-04-26T14:59:34.229Z,1005.56
2019-04-26T15:00:34.202Z,1005.62
2019-04-26T15:01:35.301Z,1005.71
2019-04-26T15:02:34.183Z,1005.84
2019-04-26T15:03:34.167Z,1005.94
2019-04-26T15:04:34.194Z,1005.97
2019-04-26T15:05:34.145Z,1005.97
2019-04-26T15:06:34.138Z,1005.35
2019-04-26T15:07:35.065Z,1005.19
2019-04-26T15:08:34.325Z,1005.84
2019-04-26T15:09:36.386Z,1005.79
2019-04-26T15:10:43.764Z,1005.75
2019-04-26T15:11:36.083Z,1005.56
2019-04-26T15:12:45.909Z,1005.51
2019-04-26T15:13:40.252Z,1005.62
2019-04-26T15:14:34.096Z,1005.59
2019-04-26T15:15:34.665Z,1005.37
2019-04-26T15:16:34.058Z,1005.52
2019-04-26T15:17:34.035Z,1005.61
2019-04-26T15:18:37.062Z,1005.26
2019-04-26T15:19:35.229Z,1005.32
2019-04-26T15:20:34.052Z,1005.28
2019-04-26T15:21:34.416Z,1005.20
2019-04-26T15:22:33.984Z,1005.75
2019-04-26T15:23:33.987Z,1005.24
2019-04-26T15:24:38.234Z,1005.83
2019-04-26T15:25:36.634Z,1005.60
2019-04-26T15:26:33.963Z,1005.32
2019-04-26T15:27:36.232Z,1005.17
2019-04-26T15:28:33.932Z,1005.16
2019-04-26T15:29:34.536Z,1005.15
2019-04-26T15:30:41.768Z,1005.18
2019-04-26T15:31:33.918Z,1005.18
2019-04-26T15:32:35.234Z,1005.23
2019-04-26T15:33:35.891Z,1005.22
2019-04-26T15:34:33.874Z,1005.89
2019-04-26T15:35:35.771Z,1005.87
2019-04-26T15:36:33.871Z,1005.25
2019-04-26T15:37:33.846Z,1005.25
2019-04-26T15:38:41.126Z,1005.22
2019-04-26T15:39:33.825Z,1005.21
2019-04-26T15:40:35.161Z,1005.17
2019-04-26T15:41:33.841Z,1005.28
2019-04-26T15:42:33.813Z,1005.41
2019-04-26T15:43:33.781Z,1005.28
2019-04-26T15:44:33.771Z,1005.62
2019-04-26T15:45:38.654Z,1005.78
2019-04-26T15:46:33.752Z,1005.74
2019-04-26T15:47:34.408Z,1005.78
2019-04-26T15:48:33.729Z,1005.79
2019-04-26T15:49:36.543Z,1005.71
2019-04-26T15:50:33.708Z,1005.67
2019-04-26T15:51:33.699Z,1005.66
2019-04-26T15:52:34.010Z,1005.67
2019-04-26T15:53:33.681Z,1005.65
2019-04-26T15:54:33.672Z,1005.69
2019-04-26T15:55:39.650Z,1005.31
2019-04-26T15:56:33.655Z,1005.22
2019-04-26T15:57:34.696Z,1005.26
2019-04-26T15:58:33.640Z,1005.25
2019-04-26T15:59:33.631Z,1005.42
2019-04-26T16:00:40.474Z,1005.63
2019-04-26T16:01:33.630Z,1005.67
2019-04-26T16:02:33.620Z,1005.63
2019-04-26T16:03:36.731Z,1005.66
2019-04-26T16:04:33.592Z,1005.62
2019-04-26T16:05:33.582Z,1005.41
2019-04-26T16:06:37.326Z,1005.26
2019-04-26T16:07:34.534Z,1005.30
2019-04-26T16:08:42.422Z,1005.50
2019-04-26T16:09:33.551Z,1005.61
2019-04-26T16:10:36.804Z,1005.61
2019-04-26T16:11:33.542Z,1005.57
2019-04-26T16:12:35.205Z,1005.63
2019-04-26T16:13:33.635Z,1005.60
2019-04-26T16:14:36.633Z,1005.53
2019-04-26T16:15:33.784Z,1005.44
2019-04-26T16:16:34.668Z,1005.47
2019-04-26T16:17:36.212Z,1005.56
2019-04-26T16:18:33.615Z,1005.51
2019-04-26T16:19:33.610Z,1005.38
2019-04-26T16:20:38.098Z,1005.37
2019-04-26T16:21:33.541Z,1005.35
2019-04-26T16:22:34.411Z,1005.28
2019-04-26T16:23:41.200Z,1005.26
2019-04-26T16:24:40.912Z,1005.23
2019-04-26T16:25:34.468Z,1005.24
2019-04-26T16:26:33.442Z,1005.27
2019-04-26T16:27:34.564Z,1005.29
2019-04-26T16:28:33.425Z,1005.26
2019-04-26T16:29:33.428Z,1005.25
2019-04-26T16:30:37.424Z,1005.25
2019-04-26T16:31:34.273Z,1005.33
2019-04-26T16:32:34.593Z,1005.27
2019-04-26T16:33:33.794Z,1005.27
2019-04-26T16:34:33.374Z,1005.28
2019-04-26T16:35:33.351Z,1005.31
2019-04-26T16:36:36.487Z,1005.28
2019-04-26T16:37:35.190Z,1005.26
2019-04-26T16:38:33.330Z,1005.25
2019-04-26T16:39:39.114Z,1005.26
2019-04-26T16:40:33.301Z,1005.28
2019-04-26T16:41:37.749Z,1005.38
2019-04-26T16:42:33.282Z,1005.37
2019-04-26T16:43:40.020Z,1005.38
2019-04-26T16:44:33.562Z,1005.45
2019-04-26T16:45:37.174Z,1005.45
2019-04-26T16:46:33.424Z,1005.47
2019-04-26T16:47:35.422Z,1005.42
2019-04-26T16:48:33.218Z,1005.43
2019-04-26T16:49:41.812Z,1005.41
2019-04-26T16:50:37.219Z,1005.44
2019-04-26T16:51:34.017Z,1005.45
2019-04-26T16:52:33.691Z,1005.50
2019-04-26T16:53:45.863Z,1005.44
2019-04-26T16:54:34.312Z,1005.45
2019-04-26T16:56:35.604Z,1005.42
2019-04-26T16:57:33.892Z,1005.40
2019-04-26T16:58:38.161Z,1005.36
2019-04-26T16:59:33.105Z,1005.37
2019-04-26T17:00:33.601Z,1005.43
2019-04-26T17:00:50.202Z,1005.34
2019-04-26T17:01:33.496Z,1005.30
2019-04-26T17:02:36.468Z,1005.31
2019-04-26T17:03:38.043Z,1005.24
2019-04-26T17:04:36.208Z,1005.25
2019-04-26T17:05:47.172Z,1005.30
2019-04-26T17:06:33.046Z,1005.31
2019-04-26T17:07:36.889Z,1005.25
2019-04-26T17:08:33.013Z,1005.23
2019-04-26T17:09:54.855Z,1005.17
2019-04-26T17:10:32.989Z,1005.16
2019-04-26T17:11:35.022Z,1005.16
2019-04-26T17:12:33.177Z,1005.13
2019-04-26T17:13:34.972Z,1005.13
2019-04-26T17:14:34.131Z,1005.13
2019-04-26T17:15:34.590Z,1005.13
2019-04-26T17:16:36.920Z,1005.15
2019-04-26T17:17:33.198Z,1005.20
2019-04-26T17:18:32.889Z,1005.20
2019-04-26T17:19:35.845Z,1005.23
2019-04-26T17:20:33.961Z,1005.22
2019-04-26T17:21:34.737Z,1005.22
2019-04-26T17:22:42.604Z,1005.23
2019-04-26T17:23:33.385Z,1005.20
2019-04-26T17:24:32.812Z,1005.21
2019-04-26T17:25:32.796Z,1005.18
2019-04-26T17:26:35.501Z,1005.17
2019-04-26T17:27:33.094Z,1005.17
2019-04-26T17:28:32.758Z,1005.13
2019-04-26T17:29:33.459Z,1005.16
2019-04-26T17:30:40.769Z,1005.12
2019-04-26T17:31:33.639Z,1005.14
2019-04-26T17:32:34.972Z,1005.15
2019-04-26T17:33:32.753Z,1005.13
2019-04-26T17:34:33.645Z,1005.15
2019-04-26T17:35:32.846Z,1005.10
2019-04-26T17:36:34.452Z,1005.10
2019-04-26T17:37:32.634Z,1005.09
2019-04-26T17:38:35.158Z,1005.08
2019-04-26T17:39:32.602Z,1005.06
2019-04-26T17:40:36.461Z,1005.05
2019-04-26T17:41:33.308Z,1005.10
2019-04-26T17:42:36.464Z,1005.09
2019-04-26T17:43:32.567Z,1005.05
2019-04-26T17:44:34.065Z,1005.07
2019-04-26T17:45:32.522Z,1005.13
2019-04-26T17:46:32.754Z,1005.15
2019-04-26T17:47:36.375Z,1005.14
2019-04-26T17:48:33.699Z,1005.16
2019-04-26T17:49:34.450Z,1005.16
2019-04-26T17:50:35.318Z,1005.16
2019-04-26T17:51:41.539Z,1005.17
2019-04-26T17:52:36.149Z,1005.22
2019-04-26T17:53:33.723Z,1005.18
2019-04-26T17:54:45.980Z,1005.19
2019-04-26T17:55:33.677Z,1005.24
2019-04-26T17:56:34.854Z,1005.21
2019-04-26T17:57:36.735Z,1005.24
2019-04-26T17:58:34.390Z,1005.28
2019-04-26T17:59:35.856Z,1005.27
2019-04-26T18:00:45.356Z,1005.27
2019-04-26T18:01:44.382Z,1005.31
2019-04-26T18:02:42.174Z,1005.32
2019-04-26T18:03:32.634Z,1005.30
2019-04-26T18:04:36.871Z,1005.35
2019-04-26T18:05:45.095Z,1005.35
2019-04-26T18:06:32.201Z,1005.37
2019-04-26T18:07:41.403Z,1005.39
2019-04-26T18:08:40.624Z,1005.41
2019-04-26T18:09:41.403Z,1005.45
2019-04-26T18:10:35.487Z,1005.45
2019-04-26T18:11:32.984Z,1005.45
2019-04-26T18:12:38.429Z,1005.50
2019-04-26T18:13:32.205Z,1005.55
2019-04-26T18:14:32.197Z,1005.54
2019-04-26T18:15:33.324Z,1005.53
2019-04-26T18:16:32.890Z,1005.58
2019-04-26T18:17:32.982Z,1005.59
2019-04-26T18:18:32.017Z,1005.63
2019-04-26T18:19:33.477Z,1005.62
2019-04-26T18:20:33.522Z,1005.64
2019-04-26T18:21:33.500Z,1005.66
2019-04-26T18:22:34.556Z,1005.72
2019-04-26T18:23:33.802Z,1005.77
2019-04-26T18:24:34.863Z,1005.84
2019-04-26T18:25:31.906Z,1005.85
2019-04-26T18:26:32.782Z,1005.83
2019-04-26T18:27:35.786Z,1005.84
2019-04-26T18:28:31.858Z,1005.83
2019-04-26T18:29:33.587Z,1005.87
2019-04-26T18:30:32.973Z,1005.85
2019-04-26T18:31:33.606Z,1005.80
2019-04-26T18:32:33.963Z,1005.80
2019-04-26T18:33:32.878Z,1005.80
2019-04-26T18:34:40.530Z,1005.79
2019-04-26T18:35:31.744Z,1005.76
2019-04-26T18:36:33.075Z,1005.74
2019-04-26T18:37:36.433Z,1005.77
2019-04-26T18:38:31.701Z,1005.84
2019-04-26T18:39:33.063Z,1005.80
2019-04-26T18:40:35.404Z,1005.83
2019-04-26T18:41:31.651Z,1005.83
2019-04-26T18:42:33.334Z,1005.82
2019-04-26T18:43:32.787Z,1005.84
2019-04-26T18:44:36.892Z,1005.86
2019-04-26T18:45:31.583Z,1005.88
2019-04-26T18:46:31.931Z,1005.87
2019-04-26T18:47:31.568Z,1005.89
2019-04-26T18:48:35.250Z,1005.93
2019-04-26T18:49:32.955Z,1005.95
2019-04-26T18:50:32.783Z,1005.91
2019-04-26T18:51:31.480Z,1005.96
2019-04-26T18:52:32.974Z,1006.00
2019-04-26T18:53:36.605Z,1005.99
2019-04-26T18:54:32.872Z,1006.02
2019-04-26T18:55:34.313Z,1006.07
2019-04-26T18:56:36.997Z,1006.03
2019-04-26T18:57:31.383Z,1006.04
2019-04-26T18:58:34.734Z,1006.05
2019-04-26T18:59:31.345Z,1006.02
2019-04-26T19:00:31.329Z,1006.06
2019-04-26T19:01:34.725Z,1006.07
2019-04-26T19:02:31.292Z,1006.07
2019-04-26T19:03:31.292Z,1006.05
2019-04-26T19:04:31.257Z,1006.08
2019-04-26T19:05:31.241Z,1006.05
2019-04-26T19:06:33.555Z,1006.10
2019-04-26T19:07:32.626Z,1006.07
2019-04-26T19:08:43.867Z,1006.07
2019-04-26T19:09:33.910Z,1006.07
2019-04-26T19:10:34.103Z,1006.08
2019-04-26T19:11:32.390Z,1006.08
2019-04-26T19:12:32.520Z,1006.09
2019-04-26T19:13:36.558Z,1006.14
2019-04-26T19:14:31.745Z,1006.11
2019-04-26T19:15:33.630Z,1006.11
2019-04-26T19:16:31.941Z,1006.19
2019-04-26T19:17:31.789Z,1006.14
2019-04-26T19:18:33.684Z,1006.15
2019-04-26T19:19:31.479Z,1006.18
2019-04-26T19:20:32.316Z,1006.22
2019-04-26T19:21:32.324Z,1006.21
2019-04-26T19:22:32.216Z,1006.20
2019-04-26T19:23:32.062Z,1006.19
2019-04-26T19:24:30.908Z,1006.21
2019-04-26T19:25:34.472Z,1006.23
2019-04-26T19:26:34.887Z,1006.24
2019-04-26T19:27:30.849Z,1006.21
2019-04-26T19:28:30.834Z,1006.24
2019-04-26T19:29:34.312Z,1006.24
2019-04-26T19:30:30.937Z,1006.23
2019-04-26T19:31:30.783Z,1006.20
2019-04-26T19:32:35.196Z,1006.25
2019-04-26T19:33:31.380Z,1006.24
2019-04-26T19:34:31.355Z,1006.26
2019-04-26T19:35:30.715Z,1006.30
2019-04-26T19:36:30.703Z,1006.28
2019-04-26T19:37:36.756Z,1006.29
2019-04-26T19:38:30.652Z,1006.31
2019-04-26T19:39:33.746Z,1006.28
2019-04-26T19:40:30.614Z,1006.25
2019-04-26T19:41:31.507Z,1006.26
2019-04-26T19:42:30.962Z,1006.24
2019-04-26T19:43:34.672Z,1006.25
2019-04-26T19:44:31.612Z,1006.26
2019-04-26T19:45:31.302Z,1006.23
2019-04-26T19:46:31.592Z,1006.25
2019-04-26T19:47:30.486Z,1006.27
2019-04-26T19:48:31.481Z,1006.25
2019-04-26T19:49:33.264Z,1006.29
2019-04-26T19:50:30.434Z,1006.30
2019-04-26T19:51:30.462Z,1006.28
2019-04-26T19:52:33.767Z,1006.32
2019-04-26T19:53:30.377Z,1006.29
2019-04-26T19:54:35.596Z,1006.30
2019-04-26T19:55:31.762Z,1006.30
2019-04-26T19:56:31.479Z,1006.26
2019-04-26T19:57:33.397Z,1006.26
2019-04-26T19:58:31.976Z,1006.34
2019-04-26T19:59:33.048Z,1006.34
2019-04-26T20:00:32.027Z,1006.35
2019-04-26T20:01:30.231Z,1006.35
2019-04-26T20:02:35.846Z,1006.37
2019-04-26T20:03:30.192Z,1006.35